sensor_id;sensor_type;location;lat;lon;timestamp;temperature;humidity
21722;DHT22;11023;48.274;7.794;2023-07-16T00:02:13;20.50;99.90
21722;DHT22;11023;48.274;7.794;2023-07-16T00:04:39;20.40;99.90
21722;DHT22;11023;48.274;7.794;2023-07-16T00:07:05;20.40;99.90
21722;DHT22;11023;48.274;7.794;2023-07-16T00:09:31;20.40;99.90
21722;DHT22;11023;48.274;7.794;2023-07-16T00:11:59;20.40;99.90
21722;DHT22;11023;48.274;7.794;2023-07-16T00:14:25;20.40;99.90
21722;DHT22;11023;48.274;7.794;2023-07-16T00:16:50;20.30;99.90
21722;DHT22;11023;48.274;7.794;2023-07-16T00:19:16;20.30;99.90
21722;DHT22;11023;48.274;7.794;2023-07-16T00:21:42;20.30;99.90
21722;DHT22;11023;48.274;7.794;2023-07-16T00:24:07;20.30;99.90
21722;DHT22;11023;48.274;7.794;2023-07-16T00:26:33;20.30;99.90
21722;DHT22;11023;48.274;7.794;2023-07-16T00:28:59;20.30;99.90
21722;DHT22;11023;48.274;7.794;2023-07-16T00:31:25;20.30;99.90
21722;DHT22;11023;48.274;7.794;2023-07-16T00:33:50;20.30;99.90
21722;DHT22;11023;48.274;7.794;2023-07-16T00:36:16;20.30;99.90
21722;DHT22;11023;48.274;7.794;2023-07-16T00:38:42;20.30;99.90
21722;DHT22;11023;48.274;7.794;2023-07-16T00:41:08;20.40;99.90
21722;DHT22;11023;48.274;7.794;2023-07-16T00:43:34;20.40;99.90
21722;DHT22;11023;48.274;7.794;2023-07-16T00:45:59;20.30;99.90
21722;DHT22;11023;48.274;7.794;2023-07-16T00:48:25;20.20;99.90
21722;DHT22;11023;48.274;7.794;2023-07-16T00:50:52;20.10;99.90
21722;DHT22;11023;48.274;7.794;2023-07-16T00:53:20;20.10;99.90
21722;DHT22;11023;48.274;7.794;2023-07-16T00:55:46;20.00;99.90
21722;DHT22;11023;48.274;7.794;2023-07-16T00:58:12;19.90;99.90
21722;DHT22;11023;48.274;7.794;2023-07-16T01:00:39;19.80;99.90
21722;DHT22;11023;48.274;7.794;2023-07-16T01:03:07;19.70;99.90
21722;DHT22;11023;48.274;7.794;2023-07-16T01:08:57;19.60;99.90
21722;DHT22;11023;48.274;7.794;2023-07-16T01:11:23;19.60;99.90
21722;DHT22;11023;48.274;7.794;2023-07-16T01:13:50;19.50;99.90
21722;DHT22;11023;48.274;7.794;2023-07-16T01:16:21;19.50;99.90
21722;DHT22;11023;48.274;7.794;2023-07-16T01:18:48;19.50;99.90
21722;DHT22;11023;48.274;7.794;2023-07-16T01:21:14;19.40;99.90
21722;DHT22;11023;48.274;7.794;2023-07-16T01:24:25;19.30;99.90
21722;DHT22;11023;48.274;7.794;2023-07-16T01:30:04;19.30;99.90
21722;DHT22;11023;48.274;7.794;2023-07-16T01:32:31;19.20;99.90
21722;DHT22;11023;48.274;7.794;2023-07-16T01:34:58;19.20;99.90
21722;DHT22;11023;48.274;7.794;2023-07-16T01:37:25;19.20;99.90
21722;DHT22;11023;48.274;7.794;2023-07-16T01:39:50;19.10;99.90
21722;DHT22;11023;48.274;7.794;2023-07-16T01:42:16;19.20;99.90
21722;DHT22;11023;48.274;7.794;2023-07-16T01:44:45;19.10;99.90
21722;DHT22;11023;48.274;7.794;2023-07-16T01:47:11;19.10;99.90
21722;DHT22;11023;48.274;7.794;2023-07-16T01:49:38;19.00;99.90
21722;DHT22;11023;48.274;7.794;2023-07-16T01:52:06;19.00;99.90
21722;DHT22;11023;48.274;7.794;2023-07-16T01:54:32;19.00;99.90
21722;DHT22;11023;48.274;7.794;2023-07-16T01:56:58;19.00;99.90
21722;DHT22;11023;48.274;7.794;2023-07-16T01:59:23;19.00;99.90
21722;DHT22;11023;48.274;7.794;2023-07-16T02:01:49;18.90;99.90
21722;DHT22;11023;48.274;7.794;2023-07-16T02:04:15;18.90;99.90
21722;DHT22;11023;48.274;7.794;2023-07-16T02:06:41;18.90;99.90
21722;DHT22;11023;48.274;7.794;2023-07-16T02:09:06;18.80;99.90
21722;DHT22;11023;48.274;7.794;2023-07-16T02:11:32;18.80;99.90
21722;DHT22;11023;48.274;7.794;2023-07-16T02:13:57;18.80;99.90
21722;DHT22;11023;48.274;7.794;2023-07-16T02:16:23;18.70;99.90
21722;DHT22;11023;48.274;7.794;2023-07-16T02:18:49;18.80;99.90
21722;DHT22;11023;48.274;7.794;2023-07-16T02:21:15;18.70;99.90
21722;DHT22;11023;48.274;7.794;2023-07-16T02:23:40;18.60;99.90
21722;DHT22;11023;48.274;7.794;2023-07-16T02:26:06;18.60;99.90
21722;DHT22;11023;48.274;7.794;2023-07-16T02:28:32;18.50;99.90
21722;DHT22;11023;48.274;7.794;2023-07-16T02:30:58;18.40;99.90
21722;DHT22;11023;48.274;7.794;2023-07-16T02:33:24;18.30;99.90
21722;DHT22;11023;48.274;7.794;2023-07-16T02:35:50;18.30;99.90
21722;DHT22;11023;48.274;7.794;2023-07-16T02:38:17;18.20;99.90
21722;DHT22;11023;48.274;7.794;2023-07-16T02:40:46;18.20;99.90
21722;DHT22;11023;48.274;7.794;2023-07-16T02:43:13;18.10;99.90
21722;DHT22;11023;48.274;7.794;2023-07-16T02:45:39;18.10;99.90
21722;DHT22;11023;48.274;7.794;2023-07-16T02:48:05;18.10;99.90
21722;DHT22;11023;48.274;7.794;2023-07-16T02:50:37;18.00;99.90
21722;DHT22;11023;48.274;7.794;2023-07-16T02:53:04;18.00;99.90
21722;DHT22;11023;48.274;7.794;2023-07-16T02:55:30;18.00;99.90
21722;DHT22;11023;48.274;7.794;2023-07-16T02:57:56;18.00;99.90
21722;DHT22;11023;48.274;7.794;2023-07-16T03:00:22;18.00;99.90
21722;DHT22;11023;48.274;7.794;2023-07-16T03:02:48;18.00;99.90
21722;DHT22;11023;48.274;7.794;2023-07-16T03:05:16;18.00;99.90
21722;DHT22;11023;48.274;7.794;2023-07-16T03:07:42;17.90;99.90
21722;DHT22;11023;48.274;7.794;2023-07-16T03:10:08;17.90;99.90
21722;DHT22;11023;48.274;7.794;2023-07-16T03:12:33;17.90;99.90
21722;DHT22;11023;48.274;7.794;2023-07-16T03:14:59;17.90;99.90
21722;DHT22;11023;48.274;7.794;2023-07-16T03:17:25;17.90;99.90
21722;DHT22;11023;48.274;7.794;2023-07-16T03:19:50;17.90;99.90
21722;DHT22;11023;48.274;7.794;2023-07-16T03:22:16;17.90;99.90
21722;DHT22;11023;48.274;7.794;2023-07-16T03:24:42;17.80;99.90
21722;DHT22;11023;48.274;7.794;2023-07-16T03:27:07;17.80;99.90
21722;DHT22;11023;48.274;7.794;2023-07-16T03:29:33;17.90;99.90
21722;DHT22;11023;48.274;7.794;2023-07-16T03:31:59;17.80;99.90
21722;DHT22;11023;48.274;7.794;2023-07-16T03:34:25;17.80;99.90
21722;DHT22;11023;48.274;7.794;2023-07-16T03:36:51;17.80;99.90
21722;DHT22;11023;48.274;7.794;2023-07-16T03:39:17;17.80;99.90
21722;DHT22;11023;48.274;7.794;2023-07-16T03:41:42;17.70;99.90
21722;DHT22;11023;48.274;7.794;2023-07-16T03:44:08;17.80;99.90
21722;DHT22;11023;48.274;7.794;2023-07-16T03:46:34;17.80;99.90
21722;DHT22;11023;48.274;7.794;2023-07-16T03:49:00;17.80;99.90
21722;DHT22;11023;48.274;7.794;2023-07-16T03:51:26;17.70;99.90
21722;DHT22;11023;48.274;7.794;2023-07-16T03:53:51;17.70;99.90
21722;DHT22;11023;48.274;7.794;2023-07-16T03:56:17;17.70;99.90
21722;DHT22;11023;48.274;7.794;2023-07-16T03:58:43;17.70;99.90
21722;DHT22;11023;48.274;7.794;2023-07-16T04:01:09;17.70;99.90
21722;DHT22;11023;48.274;7.794;2023-07-16T04:03:35;17.70;99.90
21722;DHT22;11023;48.274;7.794;2023-07-16T04:06:03;17.70;99.90
21722;DHT22;11023;48.274;7.794;2023-07-16T04:08:29;17.70;99.90
21722;DHT22;11023;48.274;7.794;2023-07-16T04:10:54;17.70;99.90
21722;DHT22;11023;48.274;7.794;2023-07-16T04:13:20;17.70;99.90
21722;DHT22;11023;48.274;7.794;2023-07-16T04:15:46;17.60;99.90
21722;DHT22;11023;48.274;7.794;2023-07-16T04:18:11;17.70;99.90
21722;DHT22;11023;48.274;7.794;2023-07-16T04:20:37;17.70;99.90
21722;DHT22;11023;48.274;7.794;2023-07-16T04:23:02;17.70;99.90
21722;DHT22;11023;48.274;7.794;2023-07-16T04:25:28;17.70;99.90
21722;DHT22;11023;48.274;7.794;2023-07-16T04:27:54;17.70;99.90
21722;DHT22;11023;48.274;7.794;2023-07-16T04:30:19;17.70;99.90
21722;DHT22;11023;48.274;7.794;2023-07-16T04:32:45;17.70;99.90
21722;DHT22;11023;48.274;7.794;2023-07-16T04:35:11;17.70;99.90
21722;DHT22;11023;48.274;7.794;2023-07-16T04:37:36;17.70;99.90
21722;DHT22;11023;48.274;7.794;2023-07-16T04:40:02;17.70;99.90
21722;DHT22;11023;48.274;7.794;2023-07-16T04:42:29;17.70;99.90
21722;DHT22;11023;48.274;7.794;2023-07-16T04:44:55;17.70;99.90
21722;DHT22;11023;48.274;7.794;2023-07-16T04:47:21;17.70;99.90
21722;DHT22;11023;48.274;7.794;2023-07-16T04:49:46;17.80;99.90
21722;DHT22;11023;48.274;7.794;2023-07-16T04:52:12;17.70;99.90
21722;DHT22;11023;48.274;7.794;2023-07-16T04:54:38;17.70;99.90
21722;DHT22;11023;48.274;7.794;2023-07-16T04:57:06;17.80;99.90
21722;DHT22;11023;48.274;7.794;2023-07-16T04:59:32;17.80;99.90
21722;DHT22;11023;48.274;7.794;2023-07-16T05:01:58;17.80;99.90
21722;DHT22;11023;48.274;7.794;2023-07-16T05:04:24;17.80;99.90
21722;DHT22;11023;48.274;7.794;2023-07-16T05:06:49;17.70;99.90
21722;DHT22;11023;48.274;7.794;2023-07-16T05:09:15;17.80;99.90
21722;DHT22;11023;48.274;7.794;2023-07-16T05:11:41;17.80;99.90
21722;DHT22;11023;48.274;7.794;2023-07-16T05:14:06;17.80;99.90
21722;DHT22;11023;48.274;7.794;2023-07-16T05:16:32;17.80;99.90
21722;DHT22;11023;48.274;7.794;2023-07-16T05:18:58;17.90;99.90
21722;DHT22;11023;48.274;7.794;2023-07-16T05:21:23;17.90;99.90
21722;DHT22;11023;48.274;7.794;2023-07-16T05:23:49;17.90;99.90
21722;DHT22;11023;48.274;7.794;2023-07-16T05:26:14;18.00;99.90
21722;DHT22;11023;48.274;7.794;2023-07-16T05:28:40;18.00;99.90
21722;DHT22;11023;48.274;7.794;2023-07-16T05:31:06;18.10;99.90
21722;DHT22;11023;48.274;7.794;2023-07-16T05:33:31;18.10;99.90
21722;DHT22;11023;48.274;7.794;2023-07-16T05:35:57;18.20;99.90
21722;DHT22;11023;48.274;7.794;2023-07-16T05:38:23;18.30;99.90
21722;DHT22;11023;48.274;7.794;2023-07-16T05:40:48;18.40;99.90
21722;DHT22;11023;48.274;7.794;2023-07-16T05:43:14;18.50;99.90
21722;DHT22;11023;48.274;7.794;2023-07-16T05:45:40;18.70;99.90
21722;DHT22;11023;48.274;7.794;2023-07-16T05:48:06;18.70;99.90
21722;DHT22;11023;48.274;7.794;2023-07-16T05:50:33;18.80;99.90
21722;DHT22;11023;48.274;7.794;2023-07-16T05:52:58;18.80;99.90
21722;DHT22;11023;48.274;7.794;2023-07-16T05:55:24;18.90;99.90
21722;DHT22;11023;48.274;7.794;2023-07-16T05:57:50;18.90;99.90
21722;DHT22;11023;48.274;7.794;2023-07-16T06:00:16;19.00;99.90
21722;DHT22;11023;48.274;7.794;2023-07-16T06:02:42;19.00;99.90
21722;DHT22;11023;48.274;7.794;2023-07-16T06:05:08;19.10;99.90
21722;DHT22;11023;48.274;7.794;2023-07-16T06:07:34;19.20;99.90
21722;DHT22;11023;48.274;7.794;2023-07-16T06:10:00;19.30;99.90
21722;DHT22;11023;48.274;7.794;2023-07-16T06:12:25;19.40;99.90
21722;DHT22;11023;48.274;7.794;2023-07-16T06:14:51;19.40;99.90
21722;DHT22;11023;48.274;7.794;2023-07-16T06:17:17;19.50;99.90
21722;DHT22;11023;48.274;7.794;2023-07-16T06:19:43;19.50;99.90
21722;DHT22;11023;48.274;7.794;2023-07-16T06:22:08;19.60;99.90
21722;DHT22;11023;48.274;7.794;2023-07-16T06:24:35;19.70;99.90
21722;DHT22;11023;48.274;7.794;2023-07-16T06:27:00;19.70;99.90
21722;DHT22;11023;48.274;7.794;2023-07-16T06:29:26;19.80;99.90
21722;DHT22;11023;48.274;7.794;2023-07-16T06:31:58;19.80;99.90
21722;DHT22;11023;48.274;7.794;2023-07-16T06:34:25;20.00;99.90
21722;DHT22;11023;48.274;7.794;2023-07-16T06:36:51;20.10;99.90
21722;DHT22;11023;48.274;7.794;2023-07-16T06:39:16;20.20;99.90
21722;DHT22;11023;48.274;7.794;2023-07-16T06:41:42;20.30;99.90
21722;DHT22;11023;48.274;7.794;2023-07-16T06:44:08;20.30;99.90
21722;DHT22;11023;48.274;7.794;2023-07-16T06:46:33;20.40;99.90
21722;DHT22;11023;48.274;7.794;2023-07-16T06:48:59;20.50;99.90
21722;DHT22;11023;48.274;7.794;2023-07-16T06:51:25;20.60;99.90
21722;DHT22;11023;48.274;7.794;2023-07-16T06:53:50;20.60;99.90
21722;DHT22;11023;48.274;7.794;2023-07-16T06:56:16;20.70;99.90
21722;DHT22;11023;48.274;7.794;2023-07-16T06:58:42;20.70;99.90
21722;DHT22;11023;48.274;7.794;2023-07-16T07:01:07;20.70;99.90
21722;DHT22;11023;48.274;7.794;2023-07-16T07:03:33;20.80;99.90
21722;DHT22;11023;48.274;7.794;2023-07-16T07:06:02;20.70;99.90
21722;DHT22;11023;48.274;7.794;2023-07-16T07:08:29;20.70;99.90
21722;DHT22;11023;48.274;7.794;2023-07-16T07:10:55;20.70;99.90
21722;DHT22;11023;48.274;7.794;2023-07-16T07:13:21;20.80;99.90
21722;DHT22;11023;48.274;7.794;2023-07-16T07:15:47;20.80;99.90
21722;DHT22;11023;48.274;7.794;2023-07-16T07:18:13;20.80;99.90
21722;DHT22;11023;48.274;7.794;2023-07-16T07:20:39;20.80;99.90
21722;DHT22;11023;48.274;7.794;2023-07-16T07:23:05;20.80;99.90
21722;DHT22;11023;48.274;7.794;2023-07-16T07:25:31;20.90;99.90
21722;DHT22;11023;48.274;7.794;2023-07-16T07:27:57;20.90;99.90
21722;DHT22;11023;48.274;7.794;2023-07-16T07:30:23;20.90;99.90
21722;DHT22;11023;48.274;7.794;2023-07-16T07:32:48;20.90;99.90
21722;DHT22;11023;48.274;7.794;2023-07-16T07:35:14;21.00;99.90
21722;DHT22;11023;48.274;7.794;2023-07-16T07:37:40;21.10;99.90
21722;DHT22;11023;48.274;7.794;2023-07-16T07:40:06;21.20;99.90
21722;DHT22;11023;48.274;7.794;2023-07-16T07:42:33;21.30;99.90
21722;DHT22;11023;48.274;7.794;2023-07-16T07:44:58;21.40;99.90
21722;DHT22;11023;48.274;7.794;2023-07-16T07:47:24;21.50;99.90
21722;DHT22;11023;48.274;7.794;2023-07-16T07:49:52;21.60;99.90
21722;DHT22;11023;48.274;7.794;2023-07-16T07:52:18;21.70;99.90
21722;DHT22;11023;48.274;7.794;2023-07-16T07:54:43;21.70;99.90
21722;DHT22;11023;48.274;7.794;2023-07-16T07:57:09;21.80;99.90
21722;DHT22;11023;48.274;7.794;2023-07-16T07:59:34;21.90;99.90
21722;DHT22;11023;48.274;7.794;2023-07-16T08:02:02;22.00;99.90
21722;DHT22;11023;48.274;7.794;2023-07-16T08:04:27;22.10;99.90
21722;DHT22;11023;48.274;7.794;2023-07-16T08:06:54;22.20;99.90
21722;DHT22;11023;48.274;7.794;2023-07-16T08:09:20;22.20;99.90
21722;DHT22;11023;48.274;7.794;2023-07-16T08:11:46;22.30;99.90
21722;DHT22;11023;48.274;7.794;2023-07-16T08:14:11;22.30;99.90
21722;DHT22;11023;48.274;7.794;2023-07-16T08:16:37;22.40;99.90
21722;DHT22;11023;48.274;7.794;2023-07-16T08:19:03;22.40;99.90
21722;DHT22;11023;48.274;7.794;2023-07-16T08:21:28;22.40;99.90
21722;DHT22;11023;48.274;7.794;2023-07-16T08:23:54;22.50;99.90
21722;DHT22;11023;48.274;7.794;2023-07-16T08:26:20;22.60;99.90
21722;DHT22;11023;48.274;7.794;2023-07-16T08:28:45;22.70;99.90
21722;DHT22;11023;48.274;7.794;2023-07-16T08:31:11;22.70;99.90
21722;DHT22;11023;48.274;7.794;2023-07-16T08:33:38;22.70;99.90
21722;DHT22;11023;48.274;7.794;2023-07-16T08:36:04;22.80;99.90
21722;DHT22;11023;48.274;7.794;2023-07-16T08:38:30;22.80;99.90
21722;DHT22;11023;48.274;7.794;2023-07-16T08:40:56;23.00;99.90
21722;DHT22;11023;48.274;7.794;2023-07-16T08:43:22;23.10;99.90
21722;DHT22;11023;48.274;7.794;2023-07-16T08:45:49;23.10;99.90
21722;DHT22;11023;48.274;7.794;2023-07-16T08:48:19;23.20;99.90
21722;DHT22;11023;48.274;7.794;2023-07-16T08:50:48;23.10;99.90
21722;DHT22;11023;48.274;7.794;2023-07-16T08:53:18;23.10;99.90
21722;DHT22;11023;48.274;7.794;2023-07-16T08:55:47;23.20;99.90
21722;DHT22;11023;48.274;7.794;2023-07-16T08:58:16;23.30;99.90
21722;DHT22;11023;48.274;7.794;2023-07-16T09:00:46;23.50;99.90
21722;DHT22;11023;48.274;7.794;2023-07-16T09:03:14;23.50;99.90
21722;DHT22;11023;48.274;7.794;2023-07-16T09:05:42;23.50;99.90
21722;DHT22;11023;48.274;7.794;2023-07-16T09:08:09;23.50;99.90
21722;DHT22;11023;48.274;7.794;2023-07-16T09:10:35;23.70;99.90
21722;DHT22;11023;48.274;7.794;2023-07-16T09:13:01;23.90;99.90
21722;DHT22;11023;48.274;7.794;2023-07-16T09:15:29;24.10;99.90
21722;DHT22;11023;48.274;7.794;2023-07-16T09:17:55;24.20;99.90
21722;DHT22;11023;48.274;7.794;2023-07-16T09:20:21;24.20;99.90
21722;DHT22;11023;48.274;7.794;2023-07-16T09:22:49;24.20;99.90
21722;DHT22;11023;48.274;7.794;2023-07-16T09:25:16;24.30;99.90
21722;DHT22;11023;48.274;7.794;2023-07-16T09:27:42;24.30;99.90
21722;DHT22;11023;48.274;7.794;2023-07-16T09:30:15;24.30;99.90
21722;DHT22;11023;48.274;7.794;2023-07-16T09:32:41;24.30;99.90
21722;DHT22;11023;48.274;7.794;2023-07-16T09:35:13;24.40;99.90
21722;DHT22;11023;48.274;7.794;2023-07-16T09:37:39;24.50;99.90
21722;DHT22;11023;48.274;7.794;2023-07-16T09:40:10;24.40;99.90
21722;DHT22;11023;48.274;7.794;2023-07-16T09:42:40;24.60;99.90
21722;DHT22;11023;48.274;7.794;2023-07-16T09:45:17;24.70;99.90
21722;DHT22;11023;48.274;7.794;2023-07-16T09:47:43;24.80;99.90
21722;DHT22;11023;48.274;7.794;2023-07-16T09:50:10;24.80;99.90
21722;DHT22;11023;48.274;7.794;2023-07-16T09:52:37;24.80;99.90
21722;DHT22;11023;48.274;7.794;2023-07-16T09:55:05;24.90;99.90
21722;DHT22;11023;48.274;7.794;2023-07-16T09:57:39;24.90;99.90
21722;DHT22;11023;48.274;7.794;2023-07-16T10:00:10;25.00;99.90
21722;DHT22;11023;48.274;7.794;2023-07-16T10:02:38;25.10;99.90
21722;DHT22;11023;48.274;7.794;2023-07-16T10:05:14;25.30;99.90
21722;DHT22;11023;48.274;7.794;2023-07-16T10:07:40;25.20;99.90
21722;DHT22;11023;48.274;7.794;2023-07-16T10:10:10;25.30;99.90
21722;DHT22;11023;48.274;7.794;2023-07-16T10:12:37;25.30;99.90
21722;DHT22;11023;48.274;7.794;2023-07-16T10:15:04;25.30;99.90
21722;DHT22;11023;48.274;7.794;2023-07-16T10:17:31;25.50;99.90
21722;DHT22;11023;48.274;7.794;2023-07-16T10:19:59;25.60;99.90
21722;DHT22;11023;48.274;7.794;2023-07-16T10:22:45;25.70;99.90
21722;DHT22;11023;48.274;7.794;2023-07-16T10:27:44;25.90;99.90
21722;DHT22;11023;48.274;7.794;2023-07-16T10:30:13;25.80;99.90
21722;DHT22;11023;48.274;7.794;2023-07-16T10:32:39;25.80;99.90
21722;DHT22;11023;48.274;7.794;2023-07-16T10:35:06;25.80;99.90
21722;DHT22;11023;48.274;7.794;2023-07-16T10:37:34;25.80;99.90
21722;DHT22;11023;48.274;7.794;2023-07-16T10:40:01;25.70;99.90
21722;DHT22;11023;48.274;7.794;2023-07-16T10:42:28;25.70;99.90
21722;DHT22;11023;48.274;7.794;2023-07-16T10:44:58;25.70;99.90
21722;DHT22;11023;48.274;7.794;2023-07-16T10:47:35;25.80;99.90
21722;DHT22;11023;48.274;7.794;2023-07-16T10:50:04;25.80;99.90
21722;DHT22;11023;48.274;7.794;2023-07-16T10:52:30;25.90;99.90
21722;DHT22;11023;48.274;7.794;2023-07-16T10:54:55;26.10;99.90
21722;DHT22;11023;48.274;7.794;2023-07-16T10:57:27;26.20;99.90
21722;DHT22;11023;48.274;7.794;2023-07-16T10:59:55;26.30;99.90
21722;DHT22;11023;48.274;7.794;2023-07-16T11:02:23;26.50;99.90
21722;DHT22;11023;48.274;7.794;2023-07-16T11:04:50;26.80;99.90
21722;DHT22;11023;48.274;7.794;2023-07-16T11:07:18;27.00;99.90
21722;DHT22;11023;48.274;7.794;2023-07-16T11:12:16;27.30;99.90
21722;DHT22;11023;48.274;7.794;2023-07-16T11:14:46;27.40;99.90
21722;DHT22;11023;48.274;7.794;2023-07-16T11:17:13;27.50;99.90
21722;DHT22;11023;48.274;7.794;2023-07-16T11:19:40;27.60;99.90
21722;DHT22;11023;48.274;7.794;2023-07-16T11:22:10;27.50;99.90
21722;DHT22;11023;48.274;7.794;2023-07-16T11:24:40;27.40;99.90
21722;DHT22;11023;48.274;7.794;2023-07-16T11:27:13;27.10;99.90
21722;DHT22;11023;48.274;7.794;2023-07-16T11:29:44;26.90;99.90
21722;DHT22;11023;48.274;7.794;2023-07-16T11:32:14;26.70;99.90
21722;DHT22;11023;48.274;7.794;2023-07-16T11:34:52;26.70;99.90
21722;DHT22;11023;48.274;7.794;2023-07-16T11:37:19;26.80;99.90
21722;DHT22;11023;48.274;7.794;2023-07-16T11:39:46;26.90;99.90
21722;DHT22;11023;48.274;7.794;2023-07-16T11:42:22;27.10;99.90
21722;DHT22;11023;48.274;7.794;2023-07-16T11:44:49;27.10;99.90
21722;DHT22;11023;48.274;7.794;2023-07-16T11:47:15;27.20;99.90
21722;DHT22;11023;48.274;7.794;2023-07-16T11:49:40;27.20;99.90
21722;DHT22;11023;48.274;7.794;2023-07-16T11:52:07;27.40;99.90
21722;DHT22;11023;48.274;7.794;2023-07-16T11:54:33;27.50;99.90
21722;DHT22;11023;48.274;7.794;2023-07-16T11:56:58;27.50;99.90
21722;DHT22;11023;48.274;7.794;2023-07-16T11:59:24;27.50;99.90
21722;DHT22;11023;48.274;7.794;2023-07-16T12:01:55;27.40;99.90
21722;DHT22;11023;48.274;7.794;2023-07-16T12:04:21;27.20;99.90
21722;DHT22;11023;48.274;7.794;2023-07-16T12:06:49;27.00;99.90
21722;DHT22;11023;48.274;7.794;2023-07-16T12:09:15;27.10;99.90
21722;DHT22;11023;48.274;7.794;2023-07-16T12:11:41;27.20;99.90
21722;DHT22;11023;48.274;7.794;2023-07-16T12:14:07;26.90;99.90
21722;DHT22;11023;48.274;7.794;2023-07-16T12:16:35;26.90;99.90
21722;DHT22;11023;48.274;7.794;2023-07-16T12:19:00;27.00;99.90
21722;DHT22;11023;48.274;7.794;2023-07-16T12:21:26;27.20;99.90
21722;DHT22;11023;48.274;7.794;2023-07-16T12:23:52;27.20;99.90
21722;DHT22;11023;48.274;7.794;2023-07-16T12:26:17;27.20;99.90
21722;DHT22;11023;48.274;7.794;2023-07-16T12:28:46;27.20;99.90
21722;DHT22;11023;48.274;7.794;2023-07-16T12:31:12;27.10;99.90
21722;DHT22;11023;48.274;7.794;2023-07-16T12:33:38;27.00;99.90
21722;DHT22;11023;48.274;7.794;2023-07-16T12:36:03;27.20;99.90
21722;DHT22;11023;48.274;7.794;2023-07-16T12:38:29;27.40;99.90
21722;DHT22;11023;48.274;7.794;2023-07-16T12:40:55;27.60;99.90
21722;DHT22;11023;48.274;7.794;2023-07-16T12:43:20;27.90;99.90
21722;DHT22;11023;48.274;7.794;2023-07-16T12:45:46;28.10;99.90
21722;DHT22;11023;48.274;7.794;2023-07-16T12:48:12;28.20;99.90
21722;DHT22;11023;48.274;7.794;2023-07-16T12:50:37;28.20;99.90
21722;DHT22;11023;48.274;7.794;2023-07-16T12:53:03;28.40;99.90
21722;DHT22;11023;48.274;7.794;2023-07-16T12:55:29;28.40;99.90
21722;DHT22;11023;48.274;7.794;2023-07-16T12:57:56;28.50;99.90
21722;DHT22;11023;48.274;7.794;2023-07-16T13:00:22;28.40;99.90
21722;DHT22;11023;48.274;7.794;2023-07-16T13:02:48;28.30;99.90
21722;DHT22;11023;48.274;7.794;2023-07-16T13:05:13;28.30;99.90
21722;DHT22;11023;48.274;7.794;2023-07-16T13:07:39;28.20;99.90
21722;DHT22;11023;48.274;7.794;2023-07-16T13:10:08;28.30;99.90
21722;DHT22;11023;48.274;7.794;2023-07-16T13:12:34;28.40;99.90
21722;DHT22;11023;48.274;7.794;2023-07-16T13:15:00;28.70;99.90
21722;DHT22;11023;48.274;7.794;2023-07-16T13:17:25;29.00;99.90
21722;DHT22;11023;48.274;7.794;2023-07-16T13:19:51;29.10;99.90
21722;DHT22;11023;48.274;7.794;2023-07-16T13:22:17;29.40;99.90
21722;DHT22;11023;48.274;7.794;2023-07-16T13:24:43;29.60;99.90
21722;DHT22;11023;48.274;7.794;2023-07-16T13:27:10;29.80;99.90
21722;DHT22;11023;48.274;7.794;2023-07-16T13:29:44;29.50;99.90
21722;DHT22;11023;48.274;7.794;2023-07-16T13:32:10;29.50;99.90
21722;DHT22;11023;48.274;7.794;2023-07-16T13:34:35;29.50;99.90
21722;DHT22;11023;48.274;7.794;2023-07-16T13:37:01;29.50;99.90
21722;DHT22;11023;48.274;7.794;2023-07-16T13:39:27;29.70;99.90
21722;DHT22;11023;48.274;7.794;2023-07-16T13:41:53;29.70;99.90
21722;DHT22;11023;48.274;7.794;2023-07-16T13:44:18;29.70;99.90
21722;DHT22;11023;48.274;7.794;2023-07-16T13:46:44;29.80;99.90
21722;DHT22;11023;48.274;7.794;2023-07-16T13:49:13;29.80;99.90
21722;DHT22;11023;48.274;7.794;2023-07-16T13:51:39;29.80;99.90
21722;DHT22;11023;48.274;7.794;2023-07-16T13:54:05;29.90;99.90
21722;DHT22;11023;48.274;7.794;2023-07-16T13:56:30;30.10;99.90
21722;DHT22;11023;48.274;7.794;2023-07-16T13:58:56;30.20;99.90
21722;DHT22;11023;48.274;7.794;2023-07-16T14:01:22;30.60;99.90
21722;DHT22;11023;48.274;7.794;2023-07-16T14:03:48;31.00;99.90
21722;DHT22;11023;48.274;7.794;2023-07-16T14:06:14;31.50;99.90
21722;DHT22;11023;48.274;7.794;2023-07-16T14:08:40;31.70;99.90
21722;DHT22;11023;48.274;7.794;2023-07-16T14:11:05;31.90;99.90
21722;DHT22;11023;48.274;7.794;2023-07-16T14:13:31;32.10;99.90
21722;DHT22;11023;48.274;7.794;2023-07-16T14:15:57;32.30;99.90
21722;DHT22;11023;48.274;7.794;2023-07-16T14:18:23;32.30;99.90
21722;DHT22;11023;48.274;7.794;2023-07-16T14:20:49;32.00;99.90
21722;DHT22;11023;48.274;7.794;2023-07-16T14:23:15;32.00;99.90
21722;DHT22;11023;48.274;7.794;2023-07-16T14:25:40;32.20;99.90
21722;DHT22;11023;48.274;7.794;2023-07-16T14:28:06;32.40;99.90
21722;DHT22;11023;48.274;7.794;2023-07-16T14:30:32;32.30;99.90
21722;DHT22;11023;48.274;7.794;2023-07-16T14:32:57;31.90;99.90
21722;DHT22;11023;48.274;7.794;2023-07-16T14:35:25;31.80;99.90
21722;DHT22;11023;48.274;7.794;2023-07-16T14:37:50;31.60;99.90
21722;DHT22;11023;48.274;7.794;2023-07-16T14:40:16;31.40;99.90
21722;DHT22;11023;48.274;7.794;2023-07-16T14:42:43;31.10;99.90
21722;DHT22;11023;48.274;7.794;2023-07-16T14:45:09;30.60;99.90
21722;DHT22;11023;48.274;7.794;2023-07-16T14:47:35;30.40;99.90
21722;DHT22;11023;48.274;7.794;2023-07-16T14:50:00;30.40;99.90
21722;DHT22;11023;48.274;7.794;2023-07-16T14:52:26;30.60;99.90
21722;DHT22;11023;48.274;7.794;2023-07-16T14:54:52;31.00;99.90
21722;DHT22;11023;48.274;7.794;2023-07-16T14:57:17;31.50;99.90
21722;DHT22;11023;48.274;7.794;2023-07-16T14:59:43;32.10;99.90
21722;DHT22;11023;48.274;7.794;2023-07-16T15:02:09;32.50;99.90
21722;DHT22;11023;48.274;7.794;2023-07-16T15:04:35;33.00;99.90
21722;DHT22;11023;48.274;7.794;2023-07-16T15:07:01;33.30;99.90
21722;DHT22;11023;48.274;7.794;2023-07-16T15:09:26;33.50;99.90
21722;DHT22;11023;48.274;7.794;2023-07-16T15:11:52;33.80;99.90
21722;DHT22;11023;48.274;7.794;2023-07-16T15:14:18;33.80;98.50
21722;DHT22;11023;48.274;7.794;2023-07-16T15:16:44;33.60;96.90
21722;DHT22;11023;48.274;7.794;2023-07-16T15:19:12;33.00;96.20
21722;DHT22;11023;48.274;7.794;2023-07-16T15:21:38;33.30;97.50
21722;DHT22;11023;48.274;7.794;2023-07-16T15:24:05;33.30;98.10
21722;DHT22;11023;48.274;7.794;2023-07-16T15:26:31;33.30;97.00
21722;DHT22;11023;48.274;7.794;2023-07-16T15:28:57;33.30;97.20
21722;DHT22;11023;48.274;7.794;2023-07-16T15:31:26;33.30;96.80
21722;DHT22;11023;48.274;7.794;2023-07-16T15:33:55;32.80;96.70
21722;DHT22;11023;48.274;7.794;2023-07-16T15:36:22;32.30;97.80
21722;DHT22;11023;48.274;7.794;2023-07-16T15:38:47;31.70;98.30